SRA1 OEMA-EGLL
Flight info
| Callsign | SRA1 |
|---|---|
| Flight time | N/A |
| Altitude | 34000 |
| Route | MIXUG Q46 GAS/N0499F340 G662 NIMAR L550 NOVPA J981 DATOK L550 GENIV L324 LAKTO DCT OTHON DCT VAXOS/N0477F360 DCT RDS UL609 MES DCT DISOR DCT LONTA UL608 DOLEV DCT PEVAL DCT RESIA DCT ELMUR DCT RIPUS L613 HOC DCT LUL DCT RLP DCT ROTSI DCT KOTUN DCT NINAL DCT ABNUR DCT DIMAL DCT ALESO |
| Aircraft | MD11/H-SDE1E2E3FGHIJ2J3J4J5M1RWXY/LB1D1 |
Departure
| Time | 2026-04-27 07:36 |
|---|---|
| Airport | Prince Mohammad Bin Abdulaziz Airport (OEMA) |
Arrival
| Time | N/A |
|---|---|
| Airport | London Heathrow Airport (EGLL) |
| Time | Latitude | Longitude | Altitude | Speed | Heading |
|---|---|---|---|---|---|
| 2026-04-27 07:13 | 24.55077 | 39.69835 | 2112 ft | 0 kts | 239° |
| 2026-04-27 07:25 | 24.55086 | 39.69853 | 2112 ft | 3 kts | 231° |
| 2026-04-27 07:25 | 24.55100 | 39.69871 | 2113 ft | 4 kts | 223° |
| 2026-04-27 07:25 | 24.55121 | 39.69890 | 2112 ft | 4 kts | 213° |
| 2026-04-27 07:25 | 24.55132 | 39.69898 | 2112 ft | 3 kts | 213° |
| 2026-04-27 07:28 | 24.55127 | 39.69896 | 2112 ft | 2 kts | 202° |
| 2026-04-27 07:29 | 24.55119 | 39.69900 | 2112 ft | 1 kts | 158° |
| 2026-04-27 07:29 | 24.55103 | 39.69919 | 2112 ft | 8 kts | 140° |
| 2026-04-27 07:29 | 24.55023 | 39.69978 | 2112 ft | 20 kts | 142° |
| 2026-04-27 07:29 | 24.54899 | 39.70057 | 2112 ft | 19 kts | 151° |
| 2026-04-27 07:30 | 24.54794 | 39.70122 | 2113 ft | 15 kts | 150° |
| 2026-04-27 07:30 | 24.54717 | 39.70175 | 2115 ft | 11 kts | 146° |
| 2026-04-27 07:30 | 24.54688 | 39.70218 | 2119 ft | 4 kts | 120° |
| 2026-04-27 07:30 | 24.54672 | 39.70237 | 2119 ft | 6 kts | 137° |
| 2026-04-27 07:31 | 24.54583 | 39.70258 | 2121 ft | 17 kts | 186° |
| 2026-04-27 07:31 | 24.54478 | 39.70251 | 2119 ft | 13 kts | 179° |
| 2026-04-27 07:31 | 24.54389 | 39.70252 | 2118 ft | 14 kts | 179° |
| 2026-04-27 07:31 | 24.54297 | 39.70254 | 2120 ft | 12 kts | 178° |
| 2026-04-27 07:32 | 24.54247 | 39.70301 | 2117 ft | 8 kts | 98° |
| 2026-04-27 07:32 | 24.54245 | 39.70378 | 2114 ft | 12 kts | 92° |
| 2026-04-27 07:32 | 24.54222 | 39.70457 | 2113 ft | 11 kts | 123° |
| 2026-04-27 07:32 | 24.54171 | 39.70510 | 2113 ft | 9 kts | 143° |
| 2026-04-27 07:33 | 24.54125 | 39.70535 | 2114 ft | 8 kts | 155° |
| 2026-04-27 07:33 | 24.54058 | 39.70571 | 2113 ft | 13 kts | 153° |
| 2026-04-27 07:33 | 24.53958 | 39.70628 | 2112 ft | 19 kts | 151° |
| 2026-04-27 07:33 | 24.53833 | 39.70708 | 2113 ft | 23 kts | 149° |
| 2026-04-27 07:34 | 24.53751 | 39.70803 | 2112 ft | 12 kts | 105° |
| 2026-04-27 07:34 | 24.53759 | 39.70883 | 2113 ft | 9 kts | 80° |
| 2026-04-27 07:34 | 24.53771 | 39.70947 | 2115 ft | 8 kts | 78° |
| 2026-04-27 07:34 | 24.53784 | 39.71008 | 2115 ft | 9 kts | 76° |
| 2026-04-27 07:35 | 24.53794 | 39.71069 | 2117 ft | 7 kts | 79° |
| 2026-04-27 07:35 | 24.53810 | 39.71113 | 2119 ft | 6 kts | 57° |
| 2026-04-27 07:35 | 24.53868 | 39.71134 | 2119 ft | 12 kts | 358° |
| 2026-04-27 07:35 | 24.54086 | 39.71087 | 2117 ft | 67 kts | 348° |
| 2026-04-27 07:36 | 24.54780 | 39.70937 | 2120 ft | 134 kts | 349° |
| 2026-04-27 07:36 | 24.55886 | 39.70704 | 2118 ft | 186 kts | 349° |
| 2026-04-27 07:36 | 24.57198 | 39.70400 | 2500 ft | 186 kts | 347° |
| 2026-04-27 07:36 | 24.58461 | 39.70117 | 3143 ft | 195 kts | 348° |
| 2026-04-27 07:37 | 24.59822 | 39.69833 | 3610 ft | 198 kts | 349° |
| 2026-04-27 07:37 | 24.61194 | 39.69547 | 4059 ft | 200 kts | 348° |
| 2026-04-27 07:37 | 24.62575 | 39.69258 | 4629 ft | 204 kts | 348° |
| 2026-04-27 07:37 | 24.63967 | 39.68967 | 5254 ft | 207 kts | 348° |
| 2026-04-27 07:38 | 24.65465 | 39.68650 | 5397 ft | 230 kts | 347° |
| 2026-04-27 07:38 | 24.67088 | 39.68306 | 5544 ft | 245 kts | 348° |
| 2026-04-27 07:38 | 24.68799 | 39.67942 | 5677 ft | 254 kts | 347° |
| 2026-04-27 07:38 | 24.70559 | 39.67565 | 5804 ft | 261 kts | 347° |
| 2026-04-27 07:39 | 24.72337 | 39.67183 | 5929 ft | 267 kts | 347° |
| 2026-04-27 07:39 | 24.74199 | 39.66783 | 6055 ft | 272 kts | 347° |
| 2026-04-27 07:39 | 24.76060 | 39.66406 | 6181 ft | 278 kts | 352° |
| 2026-04-27 07:39 | 24.78024 | 39.66380 | 6310 ft | 289 kts | 1° |
| 2026-04-27 07:40 | 24.80076 | 39.66557 | 6923 ft | 291 kts | 4° |
| 2026-04-27 07:40 | 24.82125 | 39.66749 | 7449 ft | 300 kts | 2° |
| 2026-04-27 07:40 | 24.84194 | 39.66921 | 8020 ft | 304 kts | 1° |
| 2026-04-27 07:40 | 24.86329 | 39.67073 | 8571 ft | 310 kts | 0° |
| 2026-04-27 07:41 | 24.88488 | 39.67216 | 9245 ft | 313 kts | 359° |
| 2026-04-27 07:41 | 24.90633 | 39.66948 | 9880 ft | 308 kts | 336° |
| 2026-04-27 07:41 | 24.92506 | 39.65806 | 10201 ft | 315 kts | 314° |
| 2026-04-27 07:41 | 24.93895 | 39.63902 | 10359 ft | 327 kts | 297° |
| 2026-04-27 07:42 | 24.95075 | 39.61665 | 10492 ft | 348 kts | 297° |
| 2026-04-27 07:42 | 24.96396 | 39.59400 | 11066 ft | 354 kts | 301° |
| 2026-04-27 07:42 | 24.97884 | 39.57210 | 11723 ft | 359 kts | 304° |
| 2026-04-27 07:42 | 24.99510 | 39.55087 | 12352 ft | 365 kts | 307° |
| 2026-04-27 07:43 | 25.01237 | 39.53012 | 12974 ft | 369 kts | 308° |
| 2026-04-27 07:43 | 25.03032 | 39.50957 | 13609 ft | 374 kts | 309° |
| 2026-04-27 07:43 | 25.04868 | 39.48909 | 14197 ft | 378 kts | 309° |
| 2026-04-27 07:43 | 25.06712 | 39.46879 | 14803 ft | 380 kts | 309° |
| 2026-04-27 07:44 | 25.08598 | 39.44815 | 15377 ft | 383 kts | 309° |
| 2026-04-27 07:44 | 25.10497 | 39.42741 | 15963 ft | 385 kts | 310° |
| 2026-04-27 07:44 | 25.12407 | 39.40655 | 16532 ft | 388 kts | 310° |
| 2026-04-27 07:44 | 25.14337 | 39.38550 | 17082 ft | 390 kts | 310° |
| 2026-04-27 07:45 | 25.16276 | 39.36432 | 17645 ft | 393 kts | 310° |
| 2026-04-27 07:45 | 25.18223 | 39.34304 | 18204 ft | 395 kts | 310° |
| 2026-04-27 07:45 | 25.20183 | 39.32159 | 18653 ft | 399 kts | 310° |
| 2026-04-27 07:45 | 25.22155 | 39.30001 | 19117 ft | 401 kts | 310° |
| 2026-04-27 07:46 | 25.24143 | 39.27824 | 19587 ft | 403 kts | 310° |
| 2026-04-27 07:46 | 25.26145 | 39.25630 | 20044 ft | 405 kts | 310° |
| 2026-04-27 07:46 | 25.28149 | 39.23433 | 20528 ft | 407 kts | 310° |
| 2026-04-27 07:46 | 25.30167 | 39.21220 | 21002 ft | 410 kts | 310° |
| 2026-04-27 07:47 | 25.32187 | 39.18999 | 21446 ft | 412 kts | 310° |
| 2026-04-27 07:47 | 25.34227 | 39.16758 | 21891 ft | 414 kts | 310° |
| 2026-04-27 07:47 | 25.36276 | 39.14507 | 22338 ft | 417 kts | 310° |
| 2026-04-27 07:47 | 25.38342 | 39.12239 | 22781 ft | 419 kts | 310° |
| 2026-04-27 07:48 | 25.40391 | 39.09986 | 23247 ft | 421 kts | 310° |
| 2026-04-27 07:48 | 25.42499 | 39.07669 | 23663 ft | 424 kts | 310° |
| 2026-04-27 07:48 | 25.44593 | 39.05365 | 24038 ft | 425 kts | 310° |
| 2026-04-27 07:48 | 25.46693 | 39.03052 | 24435 ft | 426 kts | 309° |
| 2026-04-27 07:49 | 25.48766 | 39.00760 | 24832 ft | 427 kts | 309° |
| 2026-04-27 07:49 | 25.50869 | 38.98433 | 25241 ft | 428 kts | 309° |
| 2026-04-27 07:49 | 25.52979 | 38.96097 | 25622 ft | 429 kts | 309° |
| 2026-04-27 07:49 | 25.55095 | 38.93757 | 25990 ft | 431 kts | 309° |
| 2026-04-27 07:50 | 25.57220 | 38.91407 | 26354 ft | 432 kts | 309° |
| 2026-04-27 07:50 | 25.59348 | 38.89056 | 26732 ft | 433 kts | 308° |
| 2026-04-27 07:50 | 25.61488 | 38.86692 | 27114 ft | 434 kts | 308° |
| 2026-04-27 07:50 | 25.63629 | 38.84323 | 27450 ft | 435 kts | 308° |
| 2026-04-27 07:51 | 25.65783 | 38.81943 | 27785 ft | 437 kts | 308° |
| 2026-04-27 07:51 | 25.67936 | 38.79557 | 28128 ft | 438 kts | 308° |
| 2026-04-27 07:51 | 25.70096 | 38.77161 | 28465 ft | 440 kts | 307° |
| 2026-04-27 07:51 | 25.72269 | 38.74749 | 28799 ft | 441 kts | 307° |
| 2026-04-27 07:52 | 25.74442 | 38.72341 | 29137 ft | 443 kts | 307° |
| 2026-04-27 07:52 | 25.76630 | 38.69917 | 29471 ft | 444 kts | 307° |
| 2026-04-27 07:52 | 25.78790 | 38.67519 | 29796 ft | 445 kts | 307° |
| 2026-04-27 07:52 | 25.80982 | 38.65079 | 30162 ft | 446 kts | 307° |
| 2026-04-27 07:53 | 25.83175 | 38.62641 | 30521 ft | 445 kts | 307° |
| 2026-04-27 07:53 | 25.85359 | 38.60217 | 30936 ft | 443 kts | 307° |
| 2026-04-27 07:53 | 25.87530 | 38.57809 | 31341 ft | 441 kts | 306° |
| 2026-04-27 07:53 | 25.89690 | 38.55406 | 31760 ft | 438 kts | 306° |
| 2026-04-27 07:54 | 25.91838 | 38.53015 | 32151 ft | 436 kts | 306° |
| 2026-04-27 07:54 | 25.93969 | 38.50641 | 32562 ft | 433 kts | 306° |
| 2026-04-27 07:54 | 25.96096 | 38.48269 | 32937 ft | 431 kts | 306° |
| 2026-04-27 07:54 | 25.98211 | 38.45910 | 33297 ft | 429 kts | 306° |
| 2026-04-27 07:55 | 26.00306 | 38.43573 | 33672 ft | 425 kts | 306° |
| 2026-04-27 07:55 | 26.02390 | 38.41245 | 33879 ft | 426 kts | 305° |
| 2026-04-27 07:55 | 26.04485 | 38.38896 | 33923 ft | 429 kts | 305° |
| 2026-04-27 07:56 | 26.08683 | 38.34186 | 33936 ft | 427 kts | 305° |
| 2026-04-27 07:56 | 26.12858 | 38.29492 | 33936 ft | 427 kts | 305° |
| 2026-04-27 07:57 | 26.17045 | 38.24792 | 33927 ft | 427 kts | 305° |
| 2026-04-27 07:57 | 26.21205 | 38.20126 | 33935 ft | 427 kts | 305° |
| 2026-04-27 07:58 | 26.25389 | 38.15425 | 33951 ft | 427 kts | 305° |
| 2026-04-27 07:58 | 26.29572 | 38.10724 | 33952 ft | 427 kts | 305° |
| 2026-04-27 07:59 | 26.33759 | 38.06010 | 33956 ft | 427 kts | 305° |
| 2026-04-27 07:59 | 26.40038 | 37.98930 | 33959 ft | 427 kts | 305° |
| 2026-04-27 08:00 | 26.44220 | 37.94207 | 33969 ft | 428 kts | 305° |
| 2026-04-27 08:00 | 26.48383 | 37.89503 | 33951 ft | 428 kts | 305° |
| 2026-04-27 08:01 | 26.52571 | 37.84766 | 33941 ft | 428 kts | 305° |
| 2026-04-27 08:01 | 26.56757 | 37.80022 | 33948 ft | 429 kts | 305° |
| 2026-04-27 08:02 | 26.60950 | 37.75269 | 33936 ft | 429 kts | 305° |
| 2026-04-27 08:02 | 26.65151 | 37.70499 | 33940 ft | 430 kts | 305° |
| 2026-04-27 08:03 | 26.69350 | 37.65703 | 33946 ft | 433 kts | 304° |
| 2026-04-27 08:03 | 26.73542 | 37.60921 | 33951 ft | 433 kts | 305° |
| 2026-04-27 08:04 | 26.77768 | 37.56108 | 33947 ft | 433 kts | 305° |
| 2026-04-27 08:04 | 26.81991 | 37.51298 | 33954 ft | 432 kts | 305° |
| 2026-04-27 08:05 | 26.86204 | 37.46488 | 33959 ft | 432 kts | 305° |
| 2026-04-27 08:05 | 26.90414 | 37.41673 | 33960 ft | 432 kts | 305° |
| 2026-04-27 08:06 | 26.93919 | 37.37665 | 33963 ft | 433 kts | 305° |
| 2026-04-27 08:06 | 26.98818 | 37.32053 | 33970 ft | 433 kts | 305° |
| 2026-04-27 08:07 | 27.02318 | 37.28041 | 33966 ft | 433 kts | 305° |
| 2026-04-27 08:07 | 27.06536 | 37.23202 | 33980 ft | 433 kts | 305° |
| 2026-04-27 08:08 | 27.10747 | 37.18363 | 33962 ft | 433 kts | 305° |
| 2026-04-27 08:08 | 27.14950 | 37.13528 | 33963 ft | 432 kts | 305° |
| 2026-04-27 08:09 | 27.19148 | 37.08693 | 33960 ft | 432 kts | 305° |
| 2026-04-27 08:09 | 27.23340 | 37.03856 | 33955 ft | 432 kts | 304° |
| 2026-04-27 08:10 | 27.27522 | 36.99002 | 33969 ft | 431 kts | 305° |
| 2026-04-27 08:10 | 27.31686 | 36.94180 | 33952 ft | 429 kts | 304° |
| 2026-04-27 08:11 | 27.35827 | 36.89388 | 33954 ft | 431 kts | 305° |
| 2026-04-27 08:11 | 27.39995 | 36.84563 | 33948 ft | 430 kts | 305° |
| 2026-04-27 08:12 | 27.44171 | 36.79717 | 33948 ft | 430 kts | 305° |
| 2026-04-27 08:12 | 27.48337 | 36.74879 | 33949 ft | 429 kts | 305° |
| 2026-04-27 08:13 | 27.52491 | 36.70049 | 33946 ft | 429 kts | 305° |
| 2026-04-27 08:13 | 27.56631 | 36.65229 | 33946 ft | 428 kts | 304° |
| 2026-04-27 08:14 | 27.60782 | 36.60386 | 33940 ft | 429 kts | 305° |
| 2026-04-27 08:14 | 27.64925 | 36.55562 | 33947 ft | 429 kts | 305° |
| 2026-04-27 08:15 | 27.69074 | 36.50726 | 33937 ft | 428 kts | 305° |
| 2026-04-27 08:15 | 27.73203 | 36.45897 | 33945 ft | 427 kts | 305° |
| 2026-04-27 08:16 | 27.77320 | 36.41073 | 33936 ft | 427 kts | 305° |
| 2026-04-27 08:16 | 27.81417 | 36.36261 | 33934 ft | 427 kts | 305° |
| 2026-04-27 08:17 | 27.85527 | 36.31419 | 33932 ft | 427 kts | 305° |
| 2026-04-27 08:17 | 27.89645 | 36.26567 | 33935 ft | 426 kts | 304° |
| 2026-04-27 08:18 | 27.93765 | 36.21716 | 33945 ft | 427 kts | 305° |
| 2026-04-27 08:18 | 27.97850 | 36.16910 | 33927 ft | 426 kts | 305° |
| 2026-04-27 08:19 | 28.01958 | 36.12073 | 33924 ft | 425 kts | 305° |
| 2026-04-27 08:19 | 28.06056 | 36.07238 | 33926 ft | 425 kts | 305° |
| 2026-04-27 08:20 | 28.10151 | 36.02393 | 33919 ft | 426 kts | 304° |
| 2026-04-27 08:20 | 28.14256 | 35.97535 | 33921 ft | 426 kts | 305° |
| 2026-04-27 08:21 | 28.18357 | 35.92681 | 33937 ft | 426 kts | 305° |
| 2026-04-27 08:21 | 28.22460 | 35.87822 | 33935 ft | 426 kts | 305° |
| 2026-04-27 08:22 | 28.26547 | 35.82964 | 33936 ft | 426 kts | 304° |
| 2026-04-27 08:22 | 28.30640 | 35.78100 | 33937 ft | 426 kts | 305° |
| 2026-04-27 08:23 | 28.34701 | 35.73274 | 33929 ft | 426 kts | 305° |
| 2026-04-27 08:23 | 28.38781 | 35.68404 | 33927 ft | 425 kts | 304° |
| 2026-04-27 08:24 | 28.42853 | 35.63519 | 33919 ft | 425 kts | 304° |
| 2026-04-27 08:24 | 28.46931 | 35.58630 | 33942 ft | 426 kts | 305° |
| 2026-04-27 08:25 | 28.51021 | 35.53738 | 33924 ft | 428 kts | 305° |
| 2026-04-27 08:25 | 28.55108 | 35.48845 | 33941 ft | 428 kts | 305° |
| 2026-04-27 08:26 | 28.59208 | 35.43932 | 33926 ft | 428 kts | 305° |
| 2026-04-27 08:26 | 28.63303 | 35.39017 | 33930 ft | 428 kts | 305° |
| 2026-04-27 08:27 | 28.67403 | 35.34091 | 33922 ft | 429 kts | 305° |
| 2026-04-27 08:27 | 28.71505 | 35.29158 | 33931 ft | 429 kts | 305° |
| 2026-04-27 08:28 | 28.75596 | 35.24232 | 33940 ft | 428 kts | 305° |
| 2026-04-27 08:28 | 28.79674 | 35.19307 | 33933 ft | 430 kts | 305° |
| 2026-04-27 08:29 | 28.83783 | 35.14346 | 33980 ft | 431 kts | 305° |
| 2026-04-27 08:29 | 28.87908 | 35.09358 | 33939 ft | 432 kts | 306° |
| 2026-04-27 08:30 | 28.92037 | 35.04361 | 33940 ft | 433 kts | 306° |
| 2026-04-27 08:30 | 28.96160 | 34.99362 | 33935 ft | 432 kts | 305° |
| 2026-04-27 08:31 | 29.00260 | 34.94364 | 33936 ft | 429 kts | 306° |
| 2026-04-27 08:31 | 29.04308 | 34.89435 | 33926 ft | 427 kts | 306° |
| 2026-04-27 08:32 | 29.08380 | 34.84476 | 33930 ft | 428 kts | 306° |
| 2026-04-27 08:32 | 29.12459 | 34.79506 | 33927 ft | 428 kts | 305° |
| 2026-04-27 08:33 | 29.16530 | 34.74540 | 33928 ft | 428 kts | 306° |
| 2026-04-27 08:33 | 29.20604 | 34.69565 | 33936 ft | 428 kts | 306° |
| 2026-04-27 08:34 | 29.24680 | 34.64580 | 33947 ft | 430 kts | 306° |
| 2026-04-27 08:34 | 29.28754 | 34.59592 | 33939 ft | 431 kts | 306° |
| 2026-04-27 08:35 | 29.32852 | 34.54573 | 33948 ft | 430 kts | 306° |
| 2026-04-27 08:35 | 29.36940 | 34.49556 | 33960 ft | 430 kts | 306° |
| 2026-04-27 08:36 | 29.41023 | 34.44539 | 33961 ft | 430 kts | 306° |
| 2026-04-27 08:36 | 29.45109 | 34.39512 | 33965 ft | 431 kts | 306° |
| 2026-04-27 08:37 | 29.49190 | 34.34482 | 33968 ft | 430 kts | 306° |
| 2026-04-27 08:37 | 29.53267 | 34.29453 | 33970 ft | 431 kts | 307° |
| 2026-04-27 08:38 | 29.58047 | 34.25143 | 33999 ft | 446 kts | 322° |
| 2026-04-27 08:38 | 29.63531 | 34.21825 | 33978 ft | 448 kts | 326° |
| 2026-04-27 08:39 | 29.69085 | 34.18592 | 33971 ft | 447 kts | 325° |
| 2026-04-27 08:39 | 29.74601 | 34.15266 | 33972 ft | 447 kts | 325° |
| 2026-04-27 08:40 | 29.80092 | 34.11898 | 33971 ft | 446 kts | 324° |
| 2026-04-27 08:40 | 29.85571 | 34.08521 | 33972 ft | 447 kts | 324° |
| 2026-04-27 08:41 | 29.91042 | 34.05141 | 33972 ft | 445 kts | 325° |
| 2026-04-27 08:41 | 29.96492 | 34.01778 | 33969 ft | 445 kts | 325° |